Airfield :
LOGIN :

Register | Disclaimer

   EN    FR    IT 

 










Legend :    VFR   Marginal VFR   IFR   Intensive IFR   Very Intensive IFR
Visi :
Ceiling :
>= 8 km
>= 3000ft
5 to 8 km
1000 to 3000 ft
1500m to 5 km
500 to 1000 ft
800 to 1500m
200 to 500 ft
< 800m
< 200 ft
Symbols :   Thunderstorms  Fog  Heavy snow  Heavy precipitations  Wind > 20 kt
SIGMETs :     Misc.  Thunderstorms  Icing  Turbulence  Mountain Waves  Volcanic Ashes







- Airport Elevation : 74 ft
- IATA code : MRS
- Download approach charts


LFML - Marseille / Marignane

CURRENT METAR :
  • 272300Z AUTO 11008KT 050V200 CAVOK 24/13 Q1013 TEMPO VRB17G27KT 2000 TSRA BKN015CB

EXPIRED METARs :
  • 272230Z AUTO 06019KT CAVOK 25/12 Q1012 TEMPO VRB15G25KT 2000 TSRA BKN015CB
  • 272200Z AUTO 08010KT CAVOK 24/14 Q1013 TEMPO VRB15G25KT 2000 TSRA BKN015CB
  • 272130Z AUTO 04006KT 010V070 9999 ///TCU 23/15 Q1013 TEMPO VRB15G25KT 2000 TSRA BKN015CB
  • 272100Z AUTO VRB02KT CAVOK 22/17 Q1014 TEMPO VRB15G25KT 2000 TSRA BKN015CB
  • 272030Z AUTO 07006KT 030V150 CAVOK 24/15 Q1013 TEMPO VRB15G25KT 2000 TSRA BKN015CB

TAF AMD TAF LFML
Valid from the 27 at 22:00 until the 29 at 03:00 UTC


272226Z 2722/2903 VRB03KT CAVOK
TEMPO 2722/2818 10013KT 4000 SHRA FEW015CB SCT020TCU
PROB40
TEMPO 2722/2818 VRB17G27KT 2000 TSRA BKN015CB TX25/2813Z TN18/2803Z
ATIS : +33 4 42 31 15 15
No reported NOTAMs for that airfield.
3 SIGMETs reported for the Marseille FIR (LFMM) :
 
Embedded thunderstorms
LFMM SIGMET 19 VALID 272300/280200 LFPW
LFMM MARSEILLE FIR/UIR EMBD TS FCST WI N4600 E00700 - N4400 E00700 - N4400 E00615 - N4600 E00615 - N4600 E00700 TOP FL380 STNR NC=
Embedded thunderstorms
LFMM SIGMET 18 VALID 272300/280300 LFPW
LFMM MARSEILLE FIR/UIR EMBD TS FCST S OF LINE N4000 E00800 - N3930 E00430 TOP FL360 MOV NW 15KT NC=
Severe turbulence
LFMM SIGMET 17 VALID 272300/280300 LFPW
LFMM MARSEILLE FIR/UIR SEV TURB FCST WI N4115 E00430 - N4200 E00430 - N4330 E00900 - N4315 E00945 - N4130 E00945 - N4115 E00430 FL220/330 MOV NW 15KT NC=



MET'MAP, your aeronautical weather chart ! - Copyright ORBIFLY December 2007 - Disclaimer

ORBIFLY MET'MAP TEAM :

Programming & Development : Alexandra Zaïnal
Concept & Development : Baudouin d'Aumeries
Co-Development & Prog : Marc-Olivier Méhu
Technical & hardware support : Manuel Goepfert

Contact : metmap@orbifly.com




SOURCES & CREDITS :

   NOAA